Time;durP1;ratioP1;P1;durP2;ratioP2;P2;SDS_P1;SDS_P2;PMS_P1;PMS_P2;Temp;Humidity;BMP_temperature;BMP_pressure;BME280_temperature;BME280_humidity;BME280_pressure;Samples;Min_cycle;Max_cycle;Signal;HPM_P1;HPM_P2
2022/06/13 00:00:58;;;;;;;5.67;2.00;;;;;;;17.97;51.36;100295.22;5040720;28;20229;-68
2022/06/13 00:03:24;;;;;;;4.63;2.00;;;;;;;17.97;51.49;100293.44;5050479;28;20179;-69
2022/06/13 00:05:50;;;;;;;4.20;1.87;;;;;;;17.86;51.63;100304.72;5050776;28;20216;-69
2022/06/13 00:08:15;;;;;;;7.03;2.40;;;;;;;17.82;51.78;100299.88;5049038;28;20609;-67
2022/06/13 00:10:40;;;;;;;4.70;2.40;;;;;;;17.79;52.41;100306.16;5036575;28;20226;-67
2022/06/13 00:13:05;;;;;;;6.60;2.40;;;;;;;17.80;51.87;100313.03;5049529;28;20247;-68
2022/06/13 00:15:31;;;;;;;6.13;2.27;;;;;;;17.89;51.57;100311.44;5046876;28;20174;-68
2022/06/13 00:17:56;;;;;;;8.80;2.33;;;;;;;17.87;52.14;100324.59;5048657;28;20229;-68
2022/06/13 00:20:21;;;;;;;5.97;2.00;;;;;;;17.88;52.32;100318.41;5039394;28;20811;-68
2022/06/13 00:22:47;;;;;;;5.80;2.30;;;;;;;17.96;53.12;100333.44;5049701;28;20185;-68
2022/06/13 00:25:13;;;;;;;6.87;2.30;;;;;;;17.85;54.08;100334.28;5050676;28;20166;-67
2022/06/13 00:27:38;;;;;;;6.17;2.33;;;;;;;17.86;54.43;100329.88;5050248;28;20676;-68
2022/06/13 00:30:07;;;;;;;5.67;2.43;;;;;;;17.73;55.62;100325.69;5051152;28;20193;-69
2022/06/13 00:32:33;;;;;;;5.70;2.20;;;;;;;17.54;56.38;100328.97;5036134;28;20230;-68
2022/06/13 00:34:58;;;;;;;6.97;2.47;;;;;;;17.30;56.96;100334.31;5049036;28;20204;-68
2022/06/13 00:37:24;;;;;;;7.17;2.40;;;;;;;17.03;58.82;100334.72;5050198;28;20541;-68
2022/06/13 00:39:49;;;;;;;7.60;2.40;;;;;;;16.99;58.79;100335.94;5048876;28;20174;-68
2022/06/13 00:42:19;;;;;;;10.07;2.70;;;;;;;16.89;59.81;100331.44;5039238;28;20293;-68
2022/06/13 00:45:08;;;;;;;5.97;2.50;;;;;;;16.82;60.31;100330.25;5050749;28;20312;-68
2022/06/13 00:47:34;;;;;;;4.47;2.17;;;;;;;16.80;61.79;100336.50;5050021;28;20689;-68
2022/06/13 00:50:00;;;;;;;7.57;2.20;;;;;;;16.68;61.42;100335.66;5050503;28;20288;-68
2022/06/13 00:52:47;;;;;;;3.37;2.10;;;;;;;16.55;61.88;100348.75;5037323;28;20229;-68
2022/06/13 00:55:16;;;;;;;9.80;2.90;;;;;;;16.56;62.78;100347.78;5047275;28;20227;-68
2022/06/13 00:57:42;;;;;;;6.27;2.17;;;;;;;16.57;62.49;100344.25;5053259;28;20273;-69
2022/06/13 01:00:11;;;;;;;5.27;2.37;;;;;;;16.57;62.79;100350.31;5044789;28;20272;-68
2022/06/13 01:02:45;;;;;;;8.03;2.53;;;;;;;16.53;63.13;100342.84;5051096;28;20243;-68
2022/06/13 01:05:15;;;;;;;5.77;2.43;;;;;;;16.55;63.02;100346.16;5048277;28;20189;-68
2022/06/13 01:07:40;;;;;;;7.20;2.50;;;;;;;16.57;63.49;100347.69;5053498;28;20165;-68
2022/06/13 01:12:51;;;;;;;6.13;2.37;;;;;;;16.37;64.37;100345.78;5039368;28;20675;-68
2022/06/13 01:15:24;;;;;;;4.80;2.37;;;;;;;16.40;64.24;100341.19;5052206;28;20197;-68
2022/06/13 01:17:52;;;;;;;9.37;2.53;;;;;;;16.40;64.28;100337.78;5053322;28;20227;-67
2022/06/13 01:20:21;;;;;;;6.73;2.60;;;;;;;16.38;63.63;100342.25;5042167;28;20189;-67
2022/06/13 01:23:11;;;;;;;8.97;2.43;;;;;;;16.38;63.76;100345.66;5052464;28;20691;-67
2022/06/13 01:26:08;;;;;;;4.30;2.20;;;;;;;16.30;64.46;100354.03;5051665;28;20655;-69
2022/06/13 01:28:55;;;;;;;7.37;2.90;;;;;;;16.24;64.49;100358.84;5053821;28;20177;-67
2022/06/13 01:31:44;;;;;;;5.40;2.27;;;;;;;16.22;64.69;100353.75;5042465;28;20225;-68
2022/06/13 01:34:21;;;;;;;6.30;2.20;;;;;;;16.22;64.72;100368.50;5052752;28;20197;-68
2022/06/13 01:37:21;;;;;;;6.10;2.40;;;;;;;16.17;65.43;100365.44;5053676;28;20185;-68
2022/06/13 01:40:03;;;;;;;6.83;2.23;;;;;;;16.19;65.31;100371.34;5053167;28;20186;-67
2022/06/13 01:42:32;;;;;;;6.40;2.37;;;;;;;16.13;65.83;100380.41;5025613;28;20229;-68
2022/06/13 01:45:22;;;;;;;6.77;2.43;;;;;;;16.04;65.99;100371.53;5053150;28;20688;-67
2022/06/13 01:48:17;;;;;;;9.40;2.30;;;;;;;16.04;65.10;100378.47;5052550;28;20629;-67
2022/06/13 01:50:55;;;;;;;7.97;2.67;;;;;;;15.97;63.86;100372.91;5000192;28;20231;-67
2022/06/13 01:53:42;;;;;;;6.93;2.30;;;;;;;15.94;62.67;100363.59;5004295;28;20292;-67
2022/06/13 01:56:10;;;;;;;7.33;2.17;;;;;;;15.97;61.79;100352.97;5010629;28;20333;-67
2022/06/13 01:58:48;;;;;;;6.07;2.70;;;;;;;15.97;61.49;100357.34;5010994;28;20195;-67
2022/06/13 02:01:34;;;;;;;6.50;2.40;;;;;;;16.06;61.03;100355.84;4987489;28;20234;-67
2022/06/13 02:04:16;;;;;;;3.90;1.90;;;;;;;15.83;61.13;100358.34;5010103;28;20195;-67
2022/06/13 02:06:48;;;;;;;5.33;1.90;;;;;;;15.88;61.30;100364.03;5010412;28;20205;-67
2022/06/13 02:09:19;;;;;;;5.63;2.23;;;;;;;15.78;60.92;100368.22;4992400;28;20198;-68
2022/06/13 02:11:48;;;;;;;8.07;2.43;;;;;;;15.82;61.41;100367.88;4978664;28;20223;-67
2022/06/13 02:14:32;;;;;;;8.00;2.33;;;;;;;15.64;61.68;100372.63;5010568;28;20281;-68
2022/06/13 02:16:58;;;;;;;7.33;2.10;;;;;;;15.77;60.76;100377.75;5000395;28;20548;-67
2022/06/13 02:19:32;;;;;;;3.10;2.27;;;;;;;15.70;61.35;100365.34;5010338;28;20244;-67
2022/06/13 02:22:13;;;;;;;5.37;2.37;;;;;;;15.78;60.30;100374.22;4985443;28;20224;-68
2022/06/13 02:24:42;;;;;;;5.07;1.90;;;;;;;15.76;59.28;100370.88;5010538;28;20320;-68
2022/06/13 02:27:10;;;;;;;4.87;2.60;;;;;;;15.72;60.01;100363.47;5024683;28;20303;-67
2022/06/13 02:29:41;;;;;;;4.80;2.23;;;;;;;15.76;59.95;100357.94;5052080;28;20267;-68
2022/06/13 02:32:11;;;;;;;6.37;2.10;;;;;;;15.72;60.63;100361.69;5041179;28;20222;-67
2022/06/13 02:34:46;;;;;;;4.17;1.87;;;;;;;15.67;61.08;100356.00;5052234;28;20725;-67
2022/06/13 02:37:18;;;;;;;6.53;2.40;;;;;;;15.57;62.74;100349.84;5034453;28;20222;-68
2022/06/13 02:39:56;;;;;;;4.27;1.97;;;;;;;15.46;62.69;100348.81;5052032;28;20185;-67
2022/06/13 02:42:44;;;;;;;6.63;2.27;;;;;;;15.39;63.33;100347.59;5041597;28;20769;-67
2022/06/13 02:45:30;;;;;;;7.77;2.30;;;;;;;15.25;65.67;100348.56;5052126;28;20276;-67
2022/06/13 02:48:05;;;;;;;6.80;2.30;;;;;;;15.19;67.11;100343.81;5051853;28;20216;-67
2022/06/13 02:51:02;;;;;;;5.40;2.33;;;;;;;15.00;67.77;100344.28;5040171;28;20230;-67
2022/06/13 02:54:08;;;;;;;4.70;2.17;;;;;;;14.82;69.02;100342.03;5037412;28;20190;-67
2022/06/13 02:59:47;;;;;;;5.70;2.77;;;;;;;14.71;71.46;100357.47;5039813;28;20196;-67
2022/06/13 03:02:15;;;;;;;4.67;2.17;;;;;;;14.64;71.97;100361.38;5015174;28;20217;-67
2022/06/13 03:04:47;;;;;;;5.37;2.73;;;;;;;14.59;72.63;100361.69;5051813;28;20258;-67
2022/06/13 03:07:35;;;;;;;7.47;2.40;;;;;;;14.43;73.09;100353.28;5049029;28;20184;-69
2022/06/13 03:10:14;;;;;;;6.70;2.67;;;;;;;14.40;73.42;100354.34;5039999;28;20204;-68
2022/06/13 03:12:54;;;;;;;6.20;2.43;;;;;;;14.37;72.99;100359.69;5040174;28;20221;-67
2022/06/13 03:15:49;;;;;;;4.63;2.37;;;;;;;14.26;73.47;100367.34;5033390;28;20181;-68
2022/06/13 03:18:20;;;;;;;7.33;2.47;;;;;;;14.18;73.74;100368.66;5060252;28;20236;-68
2022/06/13 03:21:07;;;;;;;6.47;2.60;;;;;;;14.15;73.73;100376.66;5037560;28;20271;-69
2022/06/13 03:23:44;;;;;;;9.57;2.70;;;;;;;14.09;73.71;100384.81;5050780;28;20267;-68
2022/06/13 03:26:17;;;;;;;4.63;2.87;;;;;;;14.20;73.06;100373.72;5050900;28;20279;-67
2022/06/13 03:28:55;;;;;;;6.27;2.40;;;;;;;14.21;72.28;100380.56;5051257;28;20181;-68
2022/06/13 03:31:33;;;;;;;3.63;2.03;;;;;;;14.11;72.49;100385.50;5020341;28;20299;-68
2022/06/13 03:34:05;;;;;;;3.80;2.00;;;;;;;14.23;72.49;100389.06;5051298;28;20182;-68
2022/06/13 03:36:36;;;;;;;4.70;2.10;;;;;;;14.20;72.75;100389.25;5049520;28;20173;-68
2022/06/13 03:39:24;;;;;;;5.47;2.00;;;;;;;14.15;72.40;100396.50;5049835;28;20181;-68
2022/06/13 03:41:55;;;;;;;6.67;2.80;;;;;;;14.29;72.05;100398.19;5040671;28;20232;-69
2022/06/13 03:44:27;;;;;;;5.07;2.20;;;;;;;14.32;72.02;100403.16;5051309;28;20188;-68
2022/06/13 03:47:21;;;;;;;5.00;2.43;;;;;;;14.28;72.24;100404.31;5050895;28;20226;-67
2022/06/13 03:50:01;;;;;;;5.53;2.40;;;;;;;14.41;71.86;100396.56;5046098;28;20217;-67
2022/06/13 03:52:32;;;;;;;4.90;2.47;;;;;;;14.50;71.64;100401.13;5035569;28;20237;-68
2022/06/13 03:55:11;;;;;;;6.97;2.67;;;;;;;14.47;72.27;100402.16;5042247;28;20181;-68
2022/06/13 03:57:43;;;;;;;3.50;2.30;;;;;;;14.55;72.06;100406.84;5050332;28;20185;-68
2022/06/13 04:00:27;;;;;;;7.33;2.40;;;;;;;14.43;72.46;100407.66;5030104;28;20194;-69
2022/06/13 04:02:54;;;;;;;10.70;2.37;;;;;;;14.39;73.25;100412.19;5032765;28;20199;-67
2022/06/13 04:05:30;;;;;;;4.77;2.47;;;;;;;14.41;73.23;100407.72;5043127;28;20191;-58
2022/06/13 04:07:56;;;;;;;7.60;2.30;;;;;;;14.58;72.76;100418.75;5049628;28;20181;-59
2022/06/13 04:10:23;;;;;;;4.80;2.20;;;;;;;14.66;71.86;100417.34;5040951;28;20596;-59
2022/06/13 04:13:18;;;;;;;5.57;2.40;;;;;;;14.68;72.17;100425.81;5036284;28;20180;-59
2022/06/13 04:16:04;;;;;;;4.97;1.97;;;;;;;14.91;72.19;100420.03;5046327;28;20177;-58
2022/06/13 04:18:48;;;;;;;3.63;2.00;;;;;;;15.03;71.66;100426.97;5051437;28;20239;-58
2022/06/13 04:21:31;;;;;;;3.90;2.20;;;;;;;15.08;70.81;100424.91;5036880;28;20223;-58
2022/06/13 04:24:21;;;;;;;5.37;2.27;;;;;;;14.95;72.13;100421.50;5047276;28;20181;-58
2022/06/13 04:27:07;;;;;;;7.23;3.30;;;;;;;15.00;71.62;100424.59;5051778;28;20209;-59
2022/06/13 04:29:43;;;;;;;5.27;2.17;;;;;;;14.92;72.41;100432.03;5044665;28;20198;-68
2022/06/13 04:32:18;;;;;;;5.13;2.30;;;;;;;15.02;72.91;100433.09;5023793;28;20344;-72
2022/06/13 04:34:48;;;;;;;9.23;2.60;;;;;;;15.21;72.52;100431.81;5043776;28;20661;-74
2022/06/13 04:37:15;;;;;;;7.80;2.60;;;;;;;15.20;73.22;100430.19;5042849;28;20224;-67
2022/06/13 04:39:43;;;;;;;7.17;2.47;;;;;;;15.15;72.94;100428.72;5049530;28;20194;-69
2022/06/13 04:42:11;;;;;;;5.67;2.40;;;;;;;15.16;72.52;100430.38;5057818;28;20216;-69
2022/06/13 04:44:39;;;;;;;6.50;2.77;;;;;;;15.31;72.25;100430.25;5054848;28;20190;-69
2022/06/13 04:47:06;;;;;;;4.37;2.40;;;;;;;15.24;71.67;100431.63;5053851;28;20177;-69
2022/06/13 04:49:39;;;;;;;5.17;2.30;;;;;;;15.31;71.81;100438.84;5054042;28;20208;-69
2022/06/13 04:52:09;;;;;;;11.73;3.07;;;;;;;15.35;71.85;100433.47;5027042;28;20218;-69
2022/06/13 04:54:52;;;;;;;6.23;2.30;;;;;;;15.46;71.41;100433.53;5042440;28;20280;-69
2022/06/13 04:57:18;;;;;;;8.93;2.43;;;;;;;15.54;71.37;100436.44;5053756;28;20184;-70
2022/06/13 04:59:45;;;;;;;8.57;2.60;;;;;;;15.64;70.88;100437.44;5052565;28;20598;-69
2022/06/13 05:02:18;;;;;;;5.63;2.43;;;;;;;15.72;70.66;100438.66;5029987;28;20310;-70
2022/06/13 05:04:44;;;;;;;4.90;2.60;;;;;;;15.86;70.52;100435.13;5047069;28;20177;-68
2022/06/13 05:07:16;;;;;;;6.37;2.80;;;;;;;16.07;69.46;100440.53;5052905;28;20641;-69
2022/06/13 05:09:46;;;;;;;5.53;2.37;;;;;;;16.06;69.54;100441.47;5040154;28;20189;-70
2022/06/13 05:12:17;;;;;;;8.30;2.93;;;;;;;16.04;69.40;100439.00;5042567;28;20225;-69
2022/06/13 05:14:59;;;;;;;6.40;2.70;;;;;;;16.12;69.99;100443.63;5052435;28;20178;-69
2022/06/13 05:17:34;;;;;;;4.13;2.47;;;;;;;16.21;69.17;100449.91;5052095;28;20679;-70
2022/06/13 05:20:05;;;;;;;6.03;2.13;;;;;;;16.43;67.65;100444.81;5040921;28;20197;-69
2022/06/13 05:23:08;;;;;;;5.63;2.10;;;;;;;16.66;66.33;100447.47;5042337;28;20216;-68
2022/06/13 05:25:48;;;;;;;7.40;2.57;;;;;;;16.62;65.43;100459.00;5044332;28;20644;-69
2022/06/13 05:28:22;;;;;;;9.13;3.20;;;;;;;16.85;64.72;100459.06;5051795;28;20268;-69
2022/06/13 05:30:50;;;;;;;7.97;2.37;;;;;;;16.73;62.74;100463.41;5043718;28;20324;-69
2022/06/13 05:33:18;;;;;;;4.20;2.30;;;;;;;16.72;63.01;100461.75;5052636;28;20181;-69
2022/06/13 05:35:45;;;;;;;5.23;2.37;;;;;;;16.47;63.76;100466.16;5053147;28;20295;-70
2022/06/13 05:38:17;;;;;;;5.70;2.50;;;;;;;16.80;61.61;100461.19;5050470;28;20267;-69
2022/06/13 05:40:44;;;;;;;6.40;2.63;;;;;;;17.01;60.63;100461.38;5042969;28;20340;-70
2022/06/13 05:43:11;;;;;;;4.37;2.20;;;;;;;17.48;59.58;100461.25;5052413;28;20296;-70
2022/06/13 05:45:38;;;;;;;4.00;2.60;;;;;;;17.48;58.54;100459.47;5052994;28;20192;-69
2022/06/13 05:48:04;;;;;;;6.40;2.10;;;;;;;17.52;56.94;100462.66;5051213;28;20182;-70
2022/06/13 05:50:32;;;;;;;8.73;2.23;;;;;;;17.75;57.03;100466.06;5041596;28;20299;-70
2022/06/13 05:52:57;;;;;;;6.23;2.40;;;;;;;18.39;55.82;100470.50;5043829;28;20181;-69
2022/06/13 05:55:23;;;;;;;4.57;2.53;;;;;;;18.59;53.14;100472.41;5046168;28;20493;-69
2022/06/13 05:57:48;;;;;;;5.53;2.27;;;;;;;19.23;51.97;100473.22;5051059;28;20640;-69
2022/06/13 06:00:17;;;;;;;4.30;2.00;;;;;;;19.39;49.78;100475.31;5043219;28;20170;-70
2022/06/13 06:02:43;;;;;;;11.13;2.30;;;;;;;19.82;48.23;100468.97;5054347;28;20461;-70
2022/06/13 06:05:08;;;;;;;5.30;1.87;;;;;;;20.30;46.39;100473.47;5051579;28;20192;-70
2022/06/13 06:07:33;;;;;;;4.57;2.40;;;;;;;21.26;44.00;100482.19;5052128;28;20931;-69
2022/06/13 06:10:01;;;;;;;3.57;1.80;;;;;;;22.30;41.69;100480.22;5052641;28;20289;-69
2022/06/13 06:12:26;;;;;;;4.70;1.87;;;;;;;23.32;38.44;100483.19;5025338;28;20224;-69
2022/06/13 06:14:51;;;;;;;6.73;2.53;;;;;;;23.52;38.59;100481.16;5052996;28;20550;-69
2022/06/13 06:17:17;;;;;;;5.93;1.97;;;;;;;24.07;37.08;100481.63;5050341;28;20295;-69
2022/06/13 06:19:42;;;;;;;6.87;1.77;;;;;;;25.30;35.12;100484.09;5052322;28;20189;-69
2022/06/13 06:22:07;;;;;;;3.83;1.90;;;;;;;25.21;33.97;100494.81;5041441;28;20226;-69
2022/06/13 06:24:33;;;;;;;3.30;1.67;;;;;;;24.92;34.45;100493.56;5051370;28;20201;-70
2022/06/13 06:26:58;;;;;;;3.20;1.77;;;;;;;25.28;33.61;100496.59;5051974;28;20237;-70
2022/06/13 06:29:24;;;;;;;3.88;2.05;;;;;;;25.14;33.84;100492.88;5052430;28;20260;-70
2022/06/13 06:31:50;;;;;;;5.05;2.03;;;;;;;24.71;33.54;100494.94;5041152;28;20225;-70
2022/06/13 06:34:15;;;;;;;5.82;2.05;;;;;;;24.97;33.58;100491.28;5049258;28;20602;-69
2022/06/13 06:36:40;;;;;;;5.07;1.90;;;;;;;25.50;33.54;100493.41;5051706;28;20209;-70
2022/06/13 06:39:05;;;;;;;5.80;2.20;;;;;;;26.12;31.74;100487.28;5052208;28;20528;-71
2022/06/13 06:41:31;;;;;;;5.38;1.70;;;;;;;27.01;30.39;100497.19;5041044;28;20312;-70
2022/06/13 06:43:57;;;;;;;7.93;1.92;;;;;;;27.29;29.44;100501.00;5045624;28;20578;-69
2022/06/13 06:46:23;;;;;;;4.85;1.80;;;;;;;26.84;30.16;100493.94;5051323;28;20200;-69
2022/06/13 06:48:49;;;;;;;5.00;1.98;;;;;;;26.86;30.54;100496.38;5051685;28;20209;-71
2022/06/13 06:51:14;;;;;;;5.22;2.00;;;;;;;27.15;30.05;100498.22;5033105;28;20761;-70
2022/06/13 07:01:52;;;;;;;5.60;2.03;;;;;;;28.49;27.02;100502.28;5030242;28;20228;-70
2022/06/13 07:04:18;;;;;;;2.95;1.90;;;;;;;28.78;26.88;100515.53;5051747;28;20189;-71
2022/06/13 07:06:43;;;;;;;6.10;2.28;;;;;;;28.26;28.14;100512.28;5049975;28;20173;-70
2022/06/13 07:09:09;;;;;;;4.53;1.70;;;;;;;28.52;26.21;100511.66;5050059;28;20239;-70
2022/06/13 07:11:53;;;;;;;3.47;1.67;;;;;;;26.56;28.28;100515.59;5040895;28;20225;-71
2022/06/13 07:14:20;;;;;;;3.40;1.85;;;;;;;27.85;27.71;100509.19;5048476;28;20273;-71
2022/06/13 07:16:45;;;;;;;4.88;2.03;;;;;;;27.25;28.45;100510.31;5028511;28;20279;-70
2022/06/13 07:19:11;;;;;;;6.78;2.00;;;;;;;28.92;26.68;100509.28;5050908;28;20581;-71
2022/06/13 07:21:36;;;;;;;4.82;1.90;;;;;;;29.79;25.31;100530.88;5040242;28;20217;-71
2022/06/13 07:24:01;;;;;;;7.00;2.53;;;;;;;29.55;25.62;100529.59;5051280;28;20177;-71
2022/06/13 07:26:27;;;;;;;3.50;1.83;;;;;;;29.38;25.77;100528.28;5049566;28;20197;-71
2022/06/13 07:28:52;;;;;;;4.82;2.15;;;;;;;28.71;25.70;100528.72;5051383;28;20765;-70
2022/06/13 07:31:19;;;;;;;5.40;1.98;;;;;;;28.32;26.90;100524.72;5020957;28;20225;-70
2022/06/13 07:33:47;;;;;;;5.68;1.92;;;;;;;27.58;27.22;100523.94;5043168;28;20299;-70
2022/06/13 07:36:14;;;;;;;7.75;2.22;;;;;;;27.52;27.04;100524.69;5050863;28;20243;-69
2022/06/13 07:38:39;;;;;;;4.72;1.55;;;;;;;29.73;25.35;100529.03;5051503;28;20654;-70
2022/06/13 07:41:04;;;;;;;3.00;1.65;;;;;;;30.21;24.19;100536.06;5040389;28;20318;-71
2022/06/13 07:43:32;;;;;;;4.95;2.38;;;;;;;31.92;22.56;100534.44;5037479;28;20182;-70
2022/06/13 07:46:02;;;;;;;5.18;2.03;;;;;;;31.02;23.12;100538.66;5042037;28;20201;-67
2022/06/13 07:48:28;;;;;;;4.80;1.83;;;;;;;31.95;22.47;100532.16;5050918;28;20637;-71
2022/06/13 07:50:54;;;;;;;5.10;2.10;;;;;;;31.04;22.98;100532.13;5040144;28;20812;-70
2022/06/13 07:53:19;;;;;;;6.20;1.80;;;;;;;30.69;22.69;100535.06;5038708;28;20269;-70
2022/06/13 07:55:44;;;;;;;3.83;1.80;;;;;;;30.78;22.82;100530.34;5047818;28;20177;-70
2022/06/13 07:58:16;;;;;;;5.90;2.10;;;;;;;31.42;22.56;100527.13;5050765;28;20181;-70
2022/06/13 08:00:44;;;;;;;4.65;1.73;;;;;;;30.20;22.98;100528.31;5041098;28;20233;-70
2022/06/13 08:03:21;;;;;;;4.45;1.80;;;;;;;32.52;21.19;100526.00;5053894;28;20178;-70
2022/06/13 08:05:47;;;;;;;6.30;1.40;;;;;;;33.01;19.55;100528.00;5054720;28;20203;-71
2022/06/13 08:08:12;;;;;;;3.08;1.60;;;;;;;32.29;19.74;100535.44;5054992;28;20531;-70
2022/06/13 08:10:39;;;;;;;4.93;1.80;;;;;;;30.68;21.63;100533.44;5041729;28;20225;-69
2022/06/13 08:13:04;;;;;;;5.20;2.15;;;;;;;31.31;21.08;100532.06;5054083;28;20174;-69
2022/06/13 08:15:30;;;;;;;6.68;2.28;;;;;;;32.30;20.41;100536.22;5054769;28;20185;-69
2022/06/13 08:17:55;;;;;;;5.25;2.10;;;;;;;31.18;20.85;100535.56;5054396;28;20300;-70
2022/06/13 08:20:21;;;;;;;3.10;1.77;;;;;;;32.26;20.86;100540.38;5044549;28;20504;-70
2022/06/13 08:22:48;;;;;;;6.18;2.00;;;;;;;32.50;20.31;100544.06;5053795;28;20181;-70
2022/06/13 08:25:27;;;;;;;5.32;1.92;;;;;;;33.84;19.40;100553.25;5054968;28;20257;-70
2022/06/13 08:27:56;;;;;;;5.18;1.83;;;;;;;32.00;20.38;100558.13;5054264;28;20189;-70
2022/06/13 08:30:22;;;;;;;1.70;1.35;;;;;;;32.66;19.60;100550.66;5042842;28;20321;-71
2022/06/13 08:32:47;;;;;;;4.78;2.08;;;;;;;33.12;19.78;100552.06;5053150;28;20177;-69
2022/06/13 08:35:14;;;;;;;6.20;2.28;;;;;;;33.50;19.51;100552.84;5053381;28;20239;-71
2022/06/13 08:37:40;;;;;;;5.20;1.90;;;;;;;34.86;17.62;100554.09;5053930;28;20272;-70
2022/06/13 08:40:06;;;;;;;4.05;1.70;;;;;;;35.60;17.50;100549.13;5044113;28;20376;-70
2022/06/13 08:42:56;;;;;;;3.67;1.63;;;;;;;33.12;20.20;100548.56;5037072;28;20632;-70
2022/06/13 08:45:26;;;;;;;3.75;1.75;;;;;;;33.76;19.46;100564.22;5053144;28;20208;-71
2022/06/13 08:48:04;;;;;;;4.25;1.95;;;;;;;34.18;19.32;100556.22;5052564;28;20181;-70
2022/06/13 08:50:51;;;;;;;4.95;2.20;;;;;;;33.50;20.82;100554.72;5044144;28;20702;-71
2022/06/13 08:53:30;;;;;;;4.75;1.48;;;;;;;31.63;21.35;100549.91;5051275;28;20173;-70
2022/06/13 08:55:59;;;;;;;4.68;1.85;;;;;;;30.89;23.20;100552.81;5052356;28;20173;-70
2022/06/13 08:58:31;;;;;;;6.03;2.28;;;;;;;31.33;22.75;100551.28;5053933;28;20185;-70
2022/06/13 09:01:12;;;;;;;7.38;1.65;;;;;;;30.62;22.21;100554.69;5043166;28;20217;-69
2022/06/13 09:03:53;;;;;;;5.32;2.35;;;;;;;29.17;24.26;100553.84;5053355;28;20189;-69
2022/06/13 09:06:37;;;;;;;4.68;1.73;;;;;;;27.22;26.16;100559.03;5053616;28;20286;-70
2022/06/13 09:09:11;;;;;;;4.43;1.75;;;;;;;26.09;27.34;100559.63;5053631;28;20186;-69
2022/06/13 09:12:01;;;;;;;2.83;1.55;;;;;;;24.91;28.45;100563.00;5042450;28;20312;-68
2022/06/13 09:15:00;;;;;;;5.65;2.00;;;;;;;24.46;29.20;100568.56;5051325;28;20186;-69
2022/06/13 09:17:51;;;;;;;3.78;1.70;;;;;;;25.33;28.63;100559.28;4994375;28;20223;-68
2022/06/13 09:20:19;;;;;;;4.93;1.63;;;;;;;27.80;26.21;100561.00;4999516;28;20241;-69
2022/06/13 09:23:03;;;;;;;3.83;1.73;;;;;;;29.87;22.00;100567.00;4997437;28;20685;-69
2022/06/13 09:25:59;;;;;;;4.45;1.83;;;;;;;31.39;20.01;100560.25;5011322;28;20211;-69
2022/06/13 09:28:39;;;;;;;5.70;1.75;;;;;;;32.40;19.91;100565.84;4994739;28;20281;-69
2022/06/13 09:31:13;;;;;;;2.60;1.50;;;;;;;30.50;20.54;100562.44;4992999;28;20235;-68
2022/06/13 09:33:45;;;;;;;2.30;1.55;;;;;;;31.98;20.39;100562.84;5004399;28;20199;-69
2022/06/13 09:36:29;;;;;;;4.97;1.50;;;;;;;29.12;22.09;100557.06;5010700;28;20272;-68
2022/06/13 09:39:06;;;;;;;3.63;1.60;;;;;;;29.92;22.01;100551.34;5011378;28;20194;-69
2022/06/13 09:41:59;;;;;;;5.07;1.80;;;;;;;31.35;20.43;100548.41;4988694;28;20798;-69
2022/06/13 09:44:48;;;;;;;4.00;1.80;;;;;;;32.22;19.49;100560.47;5010665;28;20186;-68
2022/06/13 09:47:16;;;;;;;5.35;1.50;;;;;;;29.46;21.89;100570.53;5010906;28;20273;-70
2022/06/13 09:50:04;;;;;;;4.70;1.77;;;;;;;30.16;21.74;100564.22;5007595;28;20210;-68
2022/06/13 09:52:36;;;;;;;4.32;1.80;;;;;;;31.19;20.79;100571.75;4983826;28;20566;-70
2022/06/13 09:55:12;;;;;;;4.13;2.08;;;;;;;28.23;22.97;100557.59;5041854;28;20672;-70
2022/06/13 09:58:25;;;;;;;4.70;1.58;;;;;;;27.79;24.50;100560.16;5051355;28;20208;-70
2022/06/13 10:01:13;;;;;;;5.88;2.17;;;;;;;28.00;24.33;100555.94;5038185;28;20282;-70
2022/06/13 10:04:04;;;;;;;3.00;1.40;;;;;;;27.01;24.60;100555.28;5052417;28;20297;-69
2022/06/13 10:06:57;;;;;;;2.88;1.60;;;;;;;26.85;24.58;100558.09;5040231;28;20236;-70
2022/06/13 10:09:34;;;;;;;3.97;1.60;;;;;;;26.32;25.14;100548.28;5051184;28;20181;-70
2022/06/13 10:12:03;;;;;;;3.70;1.70;;;;;;;27.73;24.58;100558.25;5030556;28;20225;-70
2022/06/13 10:14:56;;;;;;;4.40;1.75;;;;;;;27.98;25.28;100545.53;5050256;28;20235;-69
2022/06/13 10:17:31;;;;;;;5.25;1.80;;;;;;;27.10;24.38;100560.47;5051041;28;20177;-69
2022/06/13 10:20:11;;;;;;;4.55;1.77;;;;;;;26.09;25.78;100551.72;5039424;28;20249;-69
2022/06/13 10:23:02;;;;;;;5.38;2.20;;;;;;;25.58;27.78;100560.03;5022066;28;20502;-69
2022/06/13 10:25:41;;;;;;;8.63;2.08;;;;;;;25.03;28.77;100558.19;5051889;28;20254;-69
2022/06/13 10:28:17;;;;;;;5.72;2.00;;;;;;;24.34;29.90;100554.91;5050823;28;20211;-68
2022/06/13 10:31:07;;;;;;;5.95;2.00;;;;;;;24.14;30.35;100554.41;5041731;28;20232;-69
2022/06/13 10:34:00;;;;;;;7.63;2.10;;;;;;;24.12;29.45;100558.16;5051535;28;20299;-68
2022/06/13 10:36:38;;;;;;;4.37;2.03;;;;;;;23.79;31.63;100552.78;5051800;28;20193;-69
2022/06/13 10:39:09;;;;;;;5.77;2.13;;;;;;;26.15;28.98;100555.47;5050985;28;20189;-69
2022/06/13 10:41:38;;;;;;;5.70;2.20;;;;;;;27.94;25.86;100548.75;5041566;28;20229;-69
2022/06/13 10:44:07;;;;;;;6.25;1.98;;;;;;;26.75;28.17;100550.41;5040124;28;20174;-70
2022/06/13 10:46:33;;;;;;;4.43;1.88;;;;;;;25.27;29.72;100544.97;5051798;28;20260;-70
2022/06/13 10:49:09;;;;;;;4.43;1.65;;;;;;;24.12;31.96;100545.84;5044394;28;20289;-70
2022/06/13 10:51:37;;;;;;;4.15;2.22;;;;;;;24.23;32.27;100549.97;5025734;28;20711;-69
2022/06/13 10:54:21;;;;;;;5.37;2.33;;;;;;;24.01;31.74;100554.88;5051704;28;20173;-69
2022/06/13 10:56:56;;;;;;;4.73;2.27;;;;;;;24.21;32.03;100546.66;5050499;28;20242;-69
2022/06/13 10:59:27;;;;;;;4.40;2.10;;;;;;;24.05;33.36;100536.97;5050622;28;20181;-69
2022/06/13 11:02:00;;;;;;;5.27;2.20;;;;;;;23.49;33.51;100541.84;5017704;28;20221;-68
2022/06/13 11:04:34;;;;;;;5.03;2.27;;;;;;;23.01;34.23;100538.78;5051915;28;20185;-69
2022/06/13 11:07:03;;;;;;;5.13;2.10;;;;;;;23.12;35.42;100540.31;5051077;28;20193;-68
2022/06/13 11:09:41;;;;;;;5.37;2.40;;;;;;;23.59;34.46;100532.06;5051481;28;20309;-68
2022/06/13 11:12:31;;;;;;;5.70;2.43;;;;;;;23.45;33.83;100536.09;5040310;28;20232;-69
2022/06/13 11:23:37;;;;;;;6.03;2.33;;;;;;;24.17;33.38;100553.25;5048423;28;20195;-69
2022/06/13 11:27:39;;;;;;;7.23;2.10;;;;;;;23.76;32.44;100543.41;5050953;28;20201;-68
2022/06/13 11:28:48;;;;;;;6.77;2.00;;;;;;;23.93;32.47;100544.34;5050968;28;20291;-69
2022/06/13 11:31:23;;;;;;;5.43;2.17;;;;;;;24.25;33.64;100539.28;5013074;28;20775;-70
2022/06/13 11:33:49;;;;;;;3.57;2.00;;;;;;;24.50;31.33;100540.94;5050770;28;20606;-70
2022/06/13 11:36:14;;;;;;;8.10;2.63;;;;;;;25.12;31.73;100541.41;5048338;28;20162;-70
2022/06/13 11:38:59;;;;;;;3.23;1.70;;;;;;;25.07;30.93;100535.84;5051604;28;20203;-69
2022/06/13 11:41:40;;;;;;;7.37;2.10;;;;;;;24.23;31.97;100542.09;5041117;28;20774;-68
2022/06/13 11:44:10;;;;;;;4.57;2.57;;;;;;;24.23;32.57;100544.72;5045009;28;20272;-70
2022/06/13 11:46:56;;;;;;;3.53;2.03;;;;;;;23.73;33.04;100543.75;5048185;28;20189;-70
2022/06/13 11:49:28;;;;;;;7.63;2.20;;;;;;;23.33;34.76;100553.94;5056995;28;20186;-70
2022/06/13 11:52:01;;;;;;;4.27;2.57;;;;;;;21.95;37.26;100550.78;5048714;28;20584;-69
2022/06/13 11:54:40;;;;;;;5.27;2.70;;;;;;;21.75;37.91;100557.94;5037970;28;20185;-69
2022/06/13 11:57:18;;;;;;;6.90;2.70;;;;;;;21.95;38.88;100558.63;5050308;28;20229;-69
2022/06/13 11:59:47;;;;;;;4.13;2.03;;;;;;;22.41;37.76;100545.53;5049727;28;20235;-69
2022/06/13 12:02:21;;;;;;;4.43;2.57;;;;;;;22.87;36.31;100548.88;5039480;28;20221;-68
2022/06/13 12:04:48;;;;;;;5.57;2.23;;;;;;;22.84;36.62;100541.28;5051243;28;20192;-69
2022/06/13 12:07:24;;;;;;;9.33;3.10;;;;;;;23.08;36.26;100545.03;5048755;28;20629;-69
2022/06/13 12:09:54;;;;;;;3.77;2.20;;;;;;;22.75;35.84;100546.63;5036761;28;20201;-69
2022/06/13 12:12:20;;;;;;;7.43;3.20;;;;;;;22.42;37.67;100547.19;5024016;28;20263;-70
2022/06/13 12:14:46;;;;;;;8.97;2.23;;;;;;;22.89;37.29;100546.09;5050806;28;20185;-69
2022/06/13 12:17:29;;;;;;;4.83;2.50;;;;;;;23.16;35.83;100541.69;5050048;28;20173;-69